Buck Creek, Indiana
Current Conditions -  °F | °C
As of 9:54 PM on Saturday 22 Nov 2014 (Local Time) from KLAF Reporting Station
Light Rain Light Rain  
Wind Chill: 50°   Ceiling: 3200
Heat Index: 50°   Visibility: 5mi
Dew Point: 46°   Wind: 6mph
Humidity: 86%   Direction: 200°SSW
Pressure: 29.97"   Gusts: NA
Location:  40.49°N, 86.76°W
Report Text: KLAF 230254Z AUTO 20005KT 5SM -RA BR OVC032 10/08 A2997 RMK AO2 RAB28 SLP149 P0004 60004 T01000078 53001 TSNO
Loading
Personal Weather Stations






























Interactive Weather Map New forecast layout! Learn more

10-Day Weather Forecast

Advertisements
Track Severe Weather on mobile